Time;durP1;ratioP1;P1;durP2;ratioP2;P2;SDS_P1;SDS_P2;PMS_P1;PMS_P2;Temp;Humidity;BMP_temperature;BMP_pressure;BME280_temperature;BME280_humidity;BME280_pressure;Samples;Min_cycle;Max_cycle;Signal;HPM_P1;HPM_P2
2022/07/29 00:02:11;;;;;;;1.20;0.80;;;;;;;18.16;42.20;101669.16;4974618;28;97221;-52
2022/07/29 00:04:37;;;;;;;0.73;0.60;;;;;;;18.15;42.28;101662.84;4977858;28;96798;-52
2022/07/29 00:07:03;;;;;;;1.27;0.70;;;;;;;18.13;42.34;101664.66;4980667;27;97115;-52
2022/07/29 00:09:29;;;;;;;1.73;0.70;;;;;;;18.12;42.49;101668.69;4978522;28;96841;-52
2022/07/29 00:11:58;;;;;;;1.23;0.70;;;;;;;18.10;42.53;101663.66;4980781;28;97962;-52
2022/07/29 00:14:24;;;;;;;1.10;0.53;;;;;;;18.08;42.58;101673.81;4979168;28;96967;-52
2022/07/29 00:16:49;;;;;;;0.90;0.60;;;;;;;18.08;42.57;101651.53;4983337;28;97054;-51
2022/07/29 00:19:14;;;;;;;1.00;0.70;;;;;;;18.08;42.55;101646.72;4984839;28;97393;-52
2022/07/29 00:21:40;;;;;;;2.00;0.90;;;;;;;18.08;42.63;101649.50;4983537;28;101708;-51
2022/07/29 00:24:05;;;;;;;0.60;0.50;;;;;;;18.07;42.86;101647.97;4976127;28;97326;-52
2022/07/29 00:26:32;;;;;;;0.60;0.40;;;;;;;18.04;42.76;101632.31;4974156;28;96988;-53
2022/07/29 00:29:02;;;;;;;2.10;0.80;;;;;;;18.04;43.20;101632.31;4977499;28;97425;-52
2022/07/29 00:31:27;;;;;;;2.50;0.90;;;;;;;18.05;42.75;101624.72;4977498;28;101815;-52
2022/07/29 00:33:53;;;;;;;1.03;0.60;;;;;;;18.06;42.96;101627.00;4979127;28;97355;-51
2022/07/29 00:36:20;;;;;;;1.13;0.80;;;;;;;18.09;42.98;101623.16;4979547;28;97277;-52
2022/07/29 00:38:49;;;;;;;1.73;0.67;;;;;;;18.06;43.08;101624.22;4980486;28;100039;-52
2022/07/29 00:41:15;;;;;;;1.33;0.70;;;;;;;18.08;43.13;101623.69;4981271;28;97941;-52
2022/07/29 00:43:41;;;;;;;0.90;0.70;;;;;;;18.06;43.04;101621.41;4986818;28;97346;-52
2022/07/29 00:46:07;;;;;;;2.20;0.70;;;;;;;18.08;43.12;101618.09;4978507;28;97542;-52
2022/07/29 00:48:32;;;;;;;2.80;0.67;;;;;;;18.09;43.23;101614.03;4972275;28;97114;-52
2022/07/29 00:50:59;;;;;;;3.53;0.80;;;;;;;18.10;43.29;101609.97;4975934;28;97111;-52
2022/07/29 00:53:25;;;;;;;5.47;0.90;;;;;;;18.12;43.24;101613.00;4976625;28;96888;-52
2022/07/29 00:55:50;;;;;;;1.70;0.80;;;;;;;18.11;43.17;101611.50;4977967;28;97076;-52
2022/07/29 00:58:16;;;;;;;1.33;0.93;;;;;;;18.12;43.20;101610.22;4978582;28;97088;-52
2022/07/29 01:00:42;;;;;;;1.23;0.63;;;;;;;18.10;43.31;101607.19;4977437;28;97322;-52
2022/07/29 01:03:08;;;;;;;3.20;0.70;;;;;;;18.10;43.30;101615.56;4980503;28;96888;-52
2022/07/29 01:05:34;;;;;;;2.50;0.70;;;;;;;18.12;43.42;101613.00;4984507;28;97325;-50
2022/07/29 01:08:00;;;;;;;1.63;0.90;;;;;;;18.09;43.50;101614.03;4975141;28;100852;-51
2022/07/29 01:10:26;;;;;;;4.57;0.60;;;;;;;18.06;43.47;101598.38;4976278;28;96873;-51
2022/07/29 01:12:54;;;;;;;1.37;0.70;;;;;;;18.05;43.67;101603.19;4976811;28;96792;-50
2022/07/29 01:15:20;;;;;;;0.90;0.90;;;;;;;18.01;43.70;101597.16;4977305;28;96879;-55
2022/07/29 01:17:53;;;;;;;5.50;0.80;;;;;;;18.00;43.81;101583.75;4973120;28;97313;-53
2022/07/29 01:20:33;;;;;;;1.73;0.60;;;;;;;17.97;44.53;101586.28;4979145;28;97750;-54
2022/07/29 01:23:41;;;;;;;0.90;0.80;;;;;;;17.98;44.41;101585.03;4980919;28;97158;-52
2022/07/29 01:26:21;;;;;;;1.63;0.60;;;;;;;17.97;44.15;101585.56;4980173;28;96977;-52
2022/07/29 01:28:59;;;;;;;1.40;1.00;;;;;;;17.95;43.80;101583.28;4978598;28;97177;-51
2022/07/29 01:31:48;;;;;;;1.57;0.67;;;;;;;17.95;43.94;101574.91;4976160;28;102321;-52
2022/07/29 01:34:22;;;;;;;1.57;0.73;;;;;;;17.98;44.14;101570.34;4931185;28;96978;-52
2022/07/29 01:36:56;;;;;;;1.27;0.63;;;;;;;17.98;44.00;101585.03;4976181;28;97156;-52
2022/07/29 01:39:25;;;;;;;1.37;0.70;;;;;;;18.02;43.63;101586.78;4985082;28;97369;-52
2022/07/29 01:42:30;;;;;;;2.40;0.90;;;;;;;18.05;44.43;101577.38;4980690;28;97181;-51
2022/07/29 01:45:16;;;;;;;1.27;0.60;;;;;;;18.03;44.34;101574.34;4982902;28;96732;-52
2022/07/29 01:47:49;;;;;;;0.70;0.60;;;;;;;18.04;43.90;101576.63;4983215;28;96999;-52
2022/07/29 01:50:17;;;;;;;1.40;0.80;;;;;;;18.03;43.81;101568.78;4983828;28;97462;-51
2022/07/29 01:52:59;;;;;;;3.17;0.83;;;;;;;18.02;43.91;101568.00;4981281;28;97194;-52
2022/07/29 01:55:30;;;;;;;1.77;0.80;;;;;;;18.02;44.19;101561.72;4983053;28;96970;-52
2022/07/29 01:57:58;;;;;;;0.57;0.50;;;;;;;18.02;43.79;101558.94;4980937;28;96818;-52
2022/07/29 02:00:25;;;;;;;0.70;0.60;;;;;;;17.99;43.89;101557.94;4976496;28;98424;-51
2022/07/29 02:02:53;;;;;;;0.60;0.60;;;;;;;17.97;44.00;101557.72;4977928;28;96694;-52
2022/07/29 02:05:20;;;;;;;1.23;0.70;;;;;;;18.00;44.01;101550.34;4978048;28;97140;-53
2022/07/29 02:07:48;;;;;;;3.10;0.80;;;;;;;18.01;43.86;101546.28;4983791;28;96670;-52
2022/07/29 02:10:15;;;;;;;2.70;0.80;;;;;;;18.03;44.05;101549.28;4980224;28;97735;-53
2022/07/29 02:12:43;;;;;;;2.30;0.90;;;;;;;18.04;44.10;101548.03;4983725;28;96983;-53
2022/07/29 02:15:09;;;;;;;2.63;0.90;;;;;;;18.04;44.05;101548.03;4983399;28;96885;-53
2022/07/29 02:17:41;;;;;;;1.10;0.70;;;;;;;18.02;44.15;101553.38;4979797;28;97115;-52
2022/07/29 02:20:08;;;;;;;1.77;1.10;;;;;;;18.01;44.14;101552.59;4980425;28;100688;-53
2022/07/29 02:22:36;;;;;;;1.50;1.00;;;;;;;18.05;44.08;101547.50;4984528;28;96648;-52
2022/07/29 02:25:03;;;;;;;3.33;0.80;;;;;;;18.06;44.07;101549.00;4980889;28;96681;-52
2022/07/29 02:27:29;;;;;;;1.13;0.70;;;;;;;18.07;44.03;101544.19;4981454;28;97318;-53
2022/07/29 02:29:57;;;;;;;1.33;0.67;;;;;;;18.07;44.12;101539.38;4979637;28;97065;-53
2022/07/29 02:32:25;;;;;;;5.13;0.70;;;;;;;18.09;44.16;101538.84;4981660;28;97923;-51
2022/07/29 02:34:52;;;;;;;1.47;0.70;;;;;;;18.11;44.22;101539.09;4984321;28;96682;-51
2022/07/29 02:37:18;;;;;;;1.07;0.70;;;;;;;18.13;44.19;101539.31;4980320;28;96965;-50
2022/07/29 02:39:45;;;;;;;0.90;0.70;;;;;;;18.14;44.12;101526.88;4981537;28;97331;-50
2022/07/29 02:42:15;;;;;;;0.90;0.60;;;;;;;18.11;44.11;101533.53;4977629;28;97144;-51
2022/07/29 02:44:41;;;;;;;0.60;0.47;;;;;;;18.11;44.26;101534.25;4979631;28;97506;-50
2022/07/29 02:47:13;;;;;;;0.97;0.87;;;;;;;18.13;44.43;101526.13;4980865;28;100925;-53
2022/07/29 02:49:42;;;;;;;7.60;0.80;;;;;;;18.14;44.34;101527.66;4976281;28;98041;-52
2022/07/29 02:52:22;;;;;;;1.33;0.50;;;;;;;18.15;44.65;101520.78;4981229;28;98363;-50
2022/07/29 02:54:55;;;;;;;0.60;0.60;;;;;;;18.16;44.44;101518.75;4978301;28;96724;-52
2022/07/29 02:57:42;;;;;;;2.60;0.60;;;;;;;18.17;44.71;101523.06;4987178;28;96694;-49
2022/07/29 03:00:10;;;;;;;2.13;1.03;;;;;;;18.18;44.23;101521.78;4981811;28;101883;-50
2022/07/29 03:02:41;;;;;;;0.80;0.70;;;;;;;18.17;44.31;101521.03;4981524;28;97204;-50
2022/07/29 03:05:12;;;;;;;1.37;0.70;;;;;;;18.18;44.39;101518.97;4979114;28;97228;-52
2022/07/29 03:07:40;;;;;;;2.23;0.90;;;;;;;18.15;44.29;101512.44;4979950;28;96771;-53
2022/07/29 03:10:08;;;;;;;1.83;1.00;;;;;;;18.12;44.44;101519.06;4979885;28;97049;-51
2022/07/29 03:12:34;;;;;;;1.53;0.67;;;;;;;18.15;44.38;101514.47;4980214;28;97859;-52
2022/07/29 03:15:01;;;;;;;2.50;0.70;;;;;;;18.20;44.37;101522.00;4979812;28;97063;-50
2022/07/29 03:17:27;;;;;;;1.90;0.87;;;;;;;18.21;44.67;101518.72;4982887;28;99182;-52
2022/07/29 03:19:53;;;;;;;0.70;0.70;;;;;;;18.23;44.52;101520.97;4972144;28;97121;-52
2022/07/29 03:22:19;;;;;;;1.07;0.80;;;;;;;18.26;44.52;101515.06;4974745;28;97314;-52
2022/07/29 03:24:44;;;;;;;0.80;0.60;;;;;;;18.23;44.38;101524.50;4975270;28;97373;-52
2022/07/29 03:27:09;;;;;;;0.73;0.73;;;;;;;18.26;44.39;101525.50;4977057;28;97464;-52
2022/07/29 03:29:35;;;;;;;2.10;0.93;;;;;;;18.26;44.41;101531.06;4975627;28;97082;-53
2022/07/29 03:32:05;;;;;;;1.83;0.80;;;;;;;18.31;44.58;101519.84;4981189;28;97354;-53
2022/07/29 03:34:30;;;;;;;0.80;0.70;;;;;;;18.32;44.40;101523.38;4976757;28;97355;-53
2022/07/29 03:36:56;;;;;;;2.30;0.70;;;;;;;18.28;44.28;101518.09;4981212;28;96972;-53
2022/07/29 03:39:25;;;;;;;1.43;1.00;;;;;;;18.24;44.59;101517.63;4979808;28;97407;-52
2022/07/29 03:41:55;;;;;;;1.37;0.70;;;;;;;18.24;44.80;101519.69;4971656;28;97461;-52
2022/07/29 03:44:22;;;;;;;0.80;0.80;;;;;;;18.23;44.55;101518.94;4979092;28;97029;-52
2022/07/29 03:46:51;;;;;;;2.53;1.07;;;;;;;18.25;44.63;101515.63;4974838;28;97365;-51
2022/07/29 03:49:18;;;;;;;1.73;0.80;;;;;;;18.27;44.82;101521.41;4978667;28;97380;-52
2022/07/29 03:51:44;;;;;;;1.37;0.60;;;;;;;18.31;44.68;101525.41;4974410;28;96912;-50
2022/07/29 03:54:10;;;;;;;1.40;0.80;;;;;;;18.36;44.63;101529.41;4975356;28;97097;-51
2022/07/29 03:56:39;;;;;;;1.13;0.70;;;;;;;18.38;44.78;101530.41;4982146;28;97111;-52
2022/07/29 03:59:05;;;;;;;1.57;0.87;;;;;;;18.38;44.80;101535.22;4980392;28;97441;-53
2022/07/29 04:01:33;;;;;;;0.97;0.80;;;;;;;18.38;44.59;101530.41;4974998;28;97467;-52
2022/07/29 04:04:00;;;;;;;1.53;1.07;;;;;;;18.37;44.66;101523.31;4974225;28;97050;-53
2022/07/29 04:06:25;;;;;;;1.13;1.00;;;;;;;18.34;44.67;101518.03;4971182;28;96795;-52
2022/07/29 04:08:51;;;;;;;1.90;0.80;;;;;;;18.32;44.74;101520.59;4974935;28;97891;-54
2022/07/29 04:11:16;;;;;;;1.30;0.90;;;;;;;18.33;44.97;101524.88;4974796;28;98939;-52
2022/07/29 04:13:42;;;;;;;5.70;1.23;;;;;;;18.32;44.92;101529.72;4981207;28;97120;-51
2022/07/29 04:16:07;;;;;;;2.00;0.90;;;;;;;18.36;44.85;101527.38;4979752;28;97154;-52
2022/07/29 04:18:33;;;;;;;5.70;0.80;;;;;;;18.41;44.81;101531.38;4978988;28;103319;-51
2022/07/29 04:21:00;;;;;;;1.17;0.80;;;;;;;18.44;44.83;101530.31;4976629;28;96815;-52
2022/07/29 04:23:26;;;;;;;1.00;0.70;;;;;;;18.44;44.83;101531.09;4978677;28;97132;-52
2022/07/29 04:25:51;;;;;;;1.97;0.73;;;;;;;18.41;44.94;101534.91;4971915;28;97030;-52
2022/07/29 04:28:17;;;;;;;0.73;0.73;;;;;;;18.44;45.04;101531.09;4972122;28;98547;-52
2022/07/29 04:30:42;;;;;;;0.70;0.70;;;;;;;18.48;44.92;101541.94;4973083;28;113082;-52
2022/07/29 04:33:08;;;;;;;4.13;0.70;;;;;;;18.50;45.02;101531.78;4973188;28;96728;-52
2022/07/29 04:35:38;;;;;;;1.13;0.80;;;;;;;18.53;44.98;101532.75;4973007;28;96967;-52
2022/07/29 04:38:04;;;;;;;5.13;1.30;;;;;;;18.55;44.85;101533.00;4977945;28;100801;-52
2022/07/29 04:40:30;;;;;;;0.90;0.80;;;;;;;18.57;45.08;101533.22;4976378;28;96896;-52
2022/07/29 04:42:55;;;;;;;1.83;1.10;;;;;;;18.58;45.08;101532.72;4975324;28;97395;-50
2022/07/29 04:45:21;;;;;;;1.40;0.93;;;;;;;18.56;45.20;101531.72;4978507;28;97066;-50
2022/07/29 04:47:46;;;;;;;0.63;0.63;;;;;;;18.60;45.14;101546.09;4977668;28;96945;-52
2022/07/29 04:50:12;;;;;;;1.00;1.00;;;;;;;18.63;45.07;101545.78;4975376;28;99304;-52
2022/07/29 04:52:37;;;;;;;1.33;0.87;;;;;;;18.66;45.24;101539.19;4971803;28;97170;-52
2022/07/29 04:55:04;;;;;;;0.83;0.80;;;;;;;18.67;45.21;101539.94;4972695;28;97022;-52
2022/07/29 04:57:30;;;;;;;4.07;1.27;;;;;;;18.67;44.98;101540.66;4975208;28;97490;-52
2022/07/29 04:59:55;;;;;;;1.70;1.07;;;;;;;18.70;45.06;101541.66;4973649;28;96944;-50
2022/07/29 05:02:21;;;;;;;1.27;0.80;;;;;;;18.70;45.06;101536.06;4978586;28;97412;-51
2022/07/29 05:04:47;;;;;;;0.70;0.70;;;;;;;18.73;45.33;101537.81;4978544;28;97061;-55
2022/07/29 05:07:12;;;;;;;2.03;0.90;;;;;;;18.75;45.10;101529.69;4979019;28;98530;-52
2022/07/29 05:09:38;;;;;;;1.23;0.80;;;;;;;18.74;45.16;101533.00;4976062;28;111653;-52
2022/07/29 05:12:03;;;;;;;1.47;0.80;;;;;;;18.73;45.10;101526.66;4975966;28;97381;-51
2022/07/29 05:14:28;;;;;;;1.17;0.97;;;;;;;18.77;45.27;101527.13;4976234;28;96969;-51
2022/07/29 05:16:56;;;;;;;2.13;1.00;;;;;;;18.80;45.11;101534.44;4976180;28;96889;-53
2022/07/29 05:19:22;;;;;;;1.20;1.10;;;;;;;18.85;45.25;101539.16;4976872;28;96757;-51
2022/07/29 05:21:47;;;;;;;1.37;0.90;;;;;;;18.89;45.16;101528.47;4971446;28;97173;-55
2022/07/29 05:24:13;;;;;;;1.27;0.70;;;;;;;18.90;45.23;101534.78;4977394;28;97053;-50
2022/07/29 05:26:39;;;;;;;1.07;0.60;;;;;;;18.91;45.13;101525.16;4976753;28;97336;-52
2022/07/29 05:29:04;;;;;;;0.97;0.73;;;;;;;18.92;45.26;101521.06;4977662;28;97278;-52
2022/07/29 05:31:30;;;;;;;1.07;0.97;;;;;;;18.93;45.56;101528.16;4972069;28;98066;-51
2022/07/29 05:33:55;;;;;;;2.00;1.20;;;;;;;18.95;45.52;101517.22;4976504;28;96814;-52
2022/07/29 05:36:20;;;;;;;3.10;1.67;;;;;;;19.01;45.33;101529.81;4975894;28;96809;-52
2022/07/29 05:38:46;;;;;;;1.70;1.10;;;;;;;19.08;45.33;101532.00;4975587;28;98454;-52
2022/07/29 05:41:11;;;;;;;2.37;1.10;;;;;;;19.13;45.20;101530.41;4971626;28;97349;-53
2022/07/29 05:43:36;;;;;;;2.30;1.20;;;;;;;19.15;45.33;101531.38;4977232;28;97020;-52
2022/07/29 05:46:02;;;;;;;2.20;0.67;;;;;;;19.18;45.36;101530.28;4974023;28;97822;-52
2022/07/29 05:48:27;;;;;;;3.47;1.10;;;;;;;19.23;45.20;101525.91;4980692;28;98365;-51
2022/07/29 05:50:53;;;;;;;2.07;1.07;;;;;;;19.27;45.37;101532.69;4980165;28;96935;-51
2022/07/29 05:53:18;;;;;;;1.60;0.90;;;;;;;19.30;45.15;101531.66;4977809;28;96677;-52
2022/07/29 05:55:44;;;;;;;1.27;1.00;;;;;;;19.35;45.06;101528.00;4978690;28;96939;-52
2022/07/29 05:58:09;;;;;;;1.10;1.00;;;;;;;19.39;45.14;101524.94;4975119;28;97601;-52
2022/07/29 06:00:34;;;;;;;1.63;0.90;;;;;;;19.43;45.13;101528.91;4974514;28;97107;-53
2022/07/29 06:03:00;;;;;;;0.90;0.80;;;;;;;19.46;45.16;101521.53;4974940;28;98301;-52
2022/07/29 06:05:25;;;;;;;1.37;1.03;;;;;;;19.47;45.10;101530.63;4973620;28;97718;-53
2022/07/29 06:07:51;;;;;;;3.07;1.13;;;;;;;19.48;45.20;101520.97;4978811;28;97407;-52
2022/07/29 06:10:16;;;;;;;1.37;1.17;;;;;;;19.56;45.17;101521.84;4976306;28;97220;-52
2022/07/29 06:12:41;;;;;;;0.73;0.73;;;;;;;19.64;45.08;101531.84;4979877;28;96829;-52
2022/07/29 06:15:07;;;;;;;2.37;1.33;;;;;;;19.69;44.88;101527.44;4979981;28;96926;-52
2022/07/29 06:17:32;;;;;;;1.40;1.30;;;;;;;19.76;45.00;101526.81;4979670;28;97718;-51
2022/07/29 06:19:58;;;;;;;4.83;1.30;;;;;;;19.85;45.22;101521.56;4980034;28;96811;-52
2022/07/29 06:22:23;;;;;;;1.60;1.07;;;;;;;19.92;44.86;101531.34;4978125;28;97159;-52
2022/07/29 06:24:49;;;;;;;1.37;1.10;;;;;;;19.93;44.97;101528.03;4978760;28;96865;-52
2022/07/29 06:27:14;;;;;;;4.07;1.10;;;;;;;19.95;44.82;101525.44;4980604;28;97166;-53
2022/07/29 06:29:39;;;;;;;1.50;1.00;;;;;;;19.95;44.85;101531.03;4979775;28;97556;-52
2022/07/29 06:32:05;;;;;;;1.30;1.03;;;;;;;20.00;45.03;101521.03;4984960;28;97102;-52
2022/07/29 06:34:31;;;;;;;1.53;1.03;;;;;;;20.02;44.87;101532.44;4984544;28;97427;-52
2022/07/29 06:36:56;;;;;;;2.93;1.20;;;;;;;20.05;44.83;101528.56;4981261;28;96876;-51
2022/07/29 06:39:21;;;;;;;2.43;1.10;;;;;;;20.12;44.88;101523.06;4974267;28;97350;-52
2022/07/29 06:41:51;;;;;;;1.37;1.20;;;;;;;20.18;44.89;101526.50;4976972;28;97332;-53
2022/07/29 06:44:17;;;;;;;1.27;1.13;;;;;;;20.23;44.98;101521.34;4976672;28;98638;-51
2022/07/29 06:46:43;;;;;;;1.10;1.00;;;;;;;20.29;44.96;101525.56;4976457;28;98419;-51
2022/07/29 06:49:09;;;;;;;1.10;1.00;;;;;;;20.38;44.74;101519.53;4981026;28;96832;-52
2022/07/29 06:51:35;;;;;;;1.10;1.10;;;;;;;20.37;44.70;101522.88;4977994;28;97715;-56
2022/07/29 06:54:01;;;;;;;3.60;1.60;;;;;;;20.45;44.57;101518.88;4983066;28;97438;-51
2022/07/29 06:56:27;;;;;;;1.40;1.30;;;;;;;20.50;44.48;101522.84;4977085;28;97416;-52
2022/07/29 06:58:52;;;;;;;1.77;1.13;;;;;;;20.51;44.60;101521.56;4973541;28;96818;-52
2022/07/29 07:01:17;;;;;;;1.23;1.10;;;;;;;20.57;44.49;101516.59;4980292;28;97503;-52
2022/07/29 07:03:43;;;;;;;0.93;0.93;;;;;;;20.63;44.34;101520.78;4976035;28;98077;-52
2022/07/29 07:06:08;;;;;;;1.40;1.30;;;;;;;20.70;44.30;101517.31;4977935;28;97354;-52
2022/07/29 07:08:33;;;;;;;1.27;1.17;;;;;;;20.79;44.16;101516.84;4976886;28;99388;-51
2022/07/29 07:10:59;;;;;;;1.77;1.40;;;;;;;20.88;44.35;101519.19;4979788;28;96889;-52
2022/07/29 07:13:24;;;;;;;1.00;0.80;;;;;;;20.97;44.10;101526.34;4979459;28;97757;-53
2022/07/29 07:15:51;;;;;;;4.00;1.70;;;;;;;21.04;44.07;101527.75;4983069;28;97286;-53
2022/07/29 07:18:18;;;;;;;1.20;0.83;;;;;;;21.11;44.20;101521.47;4980503;28;97024;-52
2022/07/29 07:20:44;;;;;;;1.17;1.07;;;;;;;21.13;44.10;101530.84;4971956;28;97008;-52
2022/07/29 07:23:09;;;;;;;1.30;1.20;;;;;;;21.20;43.92;101526.63;4974252;28;98567;-53
2022/07/29 07:25:35;;;;;;;1.70;1.10;;;;;;;21.26;43.63;101525.19;4976190;28;97299;-54
2022/07/29 07:28:00;;;;;;;1.93;1.70;;;;;;;21.30;43.82;101527.63;4974173;28;97322;-52
2022/07/29 07:30:26;;;;;;;5.13;1.80;;;;;;;21.38;43.75;101528.47;4977005;28;96895;-52
2022/07/29 07:32:52;;;;;;;2.23;1.40;;;;;;;21.42;43.66;101523.25;4976014;28;97025;-53
2022/07/29 07:35:18;;;;;;;2.57;1.47;;;;;;;21.47;43.56;101516.78;4977492;28;97212;-54
2022/07/29 07:37:43;;;;;;;1.60;1.13;;;;;;;21.49;43.54;101523.31;4982714;28;96972;-53
2022/07/29 07:40:11;;;;;;;2.00;1.20;;;;;;;21.55;43.38;101517.59;4977077;28;98984;-53
2022/07/29 07:42:37;;;;;;;1.30;0.97;;;;;;;21.58;43.63;101522.06;4975255;28;97024;-53
2022/07/29 07:45:04;;;;;;;1.00;0.90;;;;;;;21.61;43.59;101520.97;4972359;28;97058;-52
2022/07/29 07:47:30;;;;;;;1.77;1.00;;;;;;;21.70;43.41;101516.94;4975408;28;97481;-52
2022/07/29 07:49:55;;;;;;;2.40;1.30;;;;;;;21.76;43.39;101520.34;4973164;28;96952;-52
2022/07/29 07:52:21;;;;;;;2.83;1.20;;;;;;;21.85;43.23;101519.88;4973613;28;97947;-52
2022/07/29 07:54:47;;;;;;;2.20;1.40;;;;;;;21.96;43.28;101542.75;4978631;28;97069;-53
2022/07/29 07:57:13;;;;;;;1.80;1.30;;;;;;;22.02;43.09;101520.91;4980482;28;96893;-52
2022/07/29 07:59:39;;;;;;;1.23;1.13;;;;;;;22.04;43.07;101526.72;4980282;28;97196;-53
2022/07/29 08:02:05;;;;;;;3.60;1.33;;;;;;;22.10;43.04;101532.94;4978486;28;98084;-52
2022/07/29 08:04:31;;;;;;;1.33;1.23;;;;;;;22.21;42.90;101543.81;4976893;28;98284;-52
2022/07/29 08:06:57;;;;;;;1.20;1.00;;;;;;;22.26;42.88;101534.50;4980583;28;97580;-52
2022/07/29 08:09:24;;;;;;;1.90;1.30;;;;;;;22.30;42.79;101548.91;4979016;28;97298;-53
2022/07/29 08:11:50;;;;;;;1.47;1.30;;;;;;;22.39;42.68;101544.84;4975733;28;97317;-55
2022/07/29 08:14:16;;;;;;;2.17;1.30;;;;;;;22.54;42.58;101542.09;4976099;28;97156;-53
2022/07/29 08:16:42;;;;;;;1.40;1.30;;;;;;;22.63;42.71;101546.50;4976919;28;97205;-53
2022/07/29 08:19:07;;;;;;;2.97;1.50;;;;;;;22.65;42.23;101541.06;4976251;28;97755;-52
2022/07/29 08:21:33;;;;;;;4.30;1.43;;;;;;;22.67;42.23;101536.38;4979078;28;98545;-54
2022/07/29 08:26:43;;;;;;;2.00;1.50;;;;;;;22.82;42.24;101525.22;4975400;28;96825;-53
2022/07/29 08:29:09;;;;;;;1.57;1.23;;;;;;;22.90;41.99;101525.22;4979758;28;97033;-52
2022/07/29 08:31:36;;;;;;;2.57;1.30;;;;;;;22.91;41.74;101527.47;4973376;28;97134;-51
2022/07/29 08:34:03;;;;;;;6.07;1.13;;;;;;;22.99;41.78;101530.31;4971953;28;97504;-52
2022/07/29 08:36:28;;;;;;;1.43;1.20;;;;;;;23.03;41.75;101531.44;4977138;28;97269;-52
2022/07/29 08:38:54;;;;;;;1.03;0.93;;;;;;;23.10;41.88;101532.75;4971206;28;97425;-52
2022/07/29 08:41:19;;;;;;;2.20;1.10;;;;;;;23.19;41.77;101526.59;4979944;28;97485;-53
2022/07/29 08:43:46;;;;;;;2.37;1.30;;;;;;;23.27;41.58;101526.59;4978688;28;98497;-52
2022/07/29 08:46:11;;;;;;;2.17;1.17;;;;;;;23.37;41.57;101528.31;4977478;28;97301;-53
2022/07/29 08:48:38;;;;;;;2.43;1.00;;;;;;;23.43;41.41;101525.31;4974440;28;96920;-52
2022/07/29 08:51:06;;;;;;;4.03;1.37;;;;;;;23.43;41.49;101520.47;4975104;28;98596;-53
2022/07/29 08:53:32;;;;;;;1.03;1.00;;;;;;;23.48;41.32;101525.13;4976450;28;97948;-52
2022/07/29 08:55:58;;;;;;;2.60;1.30;;;;;;;23.50;41.26;101522.50;4979184;28;96932;-53
2022/07/29 08:58:24;;;;;;;2.57;1.30;;;;;;;23.52;41.37;101522.72;4977325;28;97787;-53
2022/07/29 09:00:55;;;;;;;2.40;1.37;;;;;;;23.53;40.93;101518.56;4980344;28;97376;-52
2022/07/29 09:03:23;;;;;;;1.00;1.00;;;;;;;23.56;41.02;101531.50;4980742;28;96865;-52
2022/07/29 09:05:51;;;;;;;1.97;1.67;;;;;;;23.65;41.14;101508.47;4974713;28;97044;-54
2022/07/29 09:08:17;;;;;;;2.70;1.50;;;;;;;23.69;41.06;101522.88;4981754;28;96969;-53
2022/07/29 09:10:44;;;;;;;3.00;1.37;;;;;;;23.68;40.73;101515.00;4978132;28;99152;-52
2022/07/29 09:13:09;;;;;;;1.70;1.50;;;;;;;23.70;40.77;101507.50;4978004;28;97313;-53
2022/07/29 09:15:34;;;;;;;1.10;1.00;;;;;;;23.74;40.72;101507.16;4976201;28;97075;-52
2022/07/29 09:18:00;;;;;;;1.83;0.83;;;;;;;23.83;40.67;101504.50;4979555;28;97162;-52
2022/07/29 09:21:57;;;;;;;1.90;1.30;;;;;;;23.90;40.84;101499.41;4974199;28;97552;-52
2022/07/29 09:23:13;;;;;;;1.73;0.80;;;;;;;24.02;40.57;101503.31;4975611;28;96959;-52
2022/07/29 09:25:40;;;;;;;2.97;1.20;;;;;;;24.13;40.60;101494.50;4978814;28;96979;-52
2022/07/29 09:28:16;;;;;;;1.30;1.20;;;;;;;24.25;40.21;101498.41;4982655;28;97307;-52
2022/07/29 09:30:58;;;;;;;1.00;0.90;;;;;;;24.38;40.53;101489.72;4981205;28;98677;-52
2022/07/29 09:33:30;;;;;;;1.80;1.00;;;;;;;24.47;40.35;101494.75;4979553;28;102952;-53
2022/07/29 09:36:09;;;;;;;1.00;1.00;;;;;;;24.52;40.31;101488.91;4979379;28;97661;-53
2022/07/29 09:38:36;;;;;;;1.47;1.13;;;;;;;24.62;40.31;101491.84;4976059;28;97163;-52
2022/07/29 09:41:03;;;;;;;1.90;0.93;;;;;;;24.74;40.07;101481.66;4978366;28;97394;-53
2022/07/29 09:43:29;;;;;;;5.00;1.10;;;;;;;24.82;40.11;101485.19;4975917;28;97305;-53
2022/07/29 09:45:54;;;;;;;2.30;0.90;;;;;;;24.84;40.17;101496.63;4977126;28;96883;-53
2022/07/29 09:48:22;;;;;;;1.53;1.13;;;;;;;24.84;40.20;101476.91;4977402;28;97133;-54
2022/07/29 09:50:49;;;;;;;2.30;1.20;;;;;;;24.86;39.97;101479.16;4977709;28;97052;-52
2022/07/29 09:53:33;;;;;;;2.17;1.20;;;;;;;24.94;39.81;101480.63;4984975;28;97383;-52
2022/07/29 09:55:58;;;;;;;1.20;0.93;;;;;;;25.04;40.07;101470.22;4981155;28;96974;-52
2022/07/29 09:58:24;;;;;;;1.60;1.30;;;;;;;25.13;40.11;101480.84;4981358;28;96783;-53
2022/07/29 10:00:51;;;;;;;2.60;1.20;;;;;;;25.25;39.57;101475.47;4975488;28;97417;-52
2022/07/29 10:03:17;;;;;;;2.07;1.30;;;;;;;25.38;39.83;101474.44;4978785;28;98785;-54
2022/07/29 10:05:44;;;;;;;1.77;1.10;;;;;;;25.50;39.30;101481.13;4980770;28;96763;-53
2022/07/29 10:08:12;;;;;;;1.53;1.20;;;;;;;25.51;39.23;101485.44;4983166;28;97386;-52
2022/07/29 10:10:41;;;;;;;1.70;1.20;;;;;;;25.56;39.38;101476.00;4985355;28;99185;-53
2022/07/29 10:13:12;;;;;;;1.87;1.07;;;;;;;25.63;38.87;101475.16;4976139;28;96953;-52
2022/07/29 10:15:40;;;;;;;1.17;1.10;;;;;;;25.68;38.77;101477.00;4974480;28;97270;-53
2022/07/29 10:18:08;;;;;;;1.10;0.90;;;;;;;25.80;38.74;101472.34;4974935;28;97441;-53
2022/07/29 10:20:34;;;;;;;1.40;1.10;;;;;;;25.93;38.68;101469.22;4974684;28;100874;-53
2022/07/29 10:23:00;;;;;;;1.20;1.03;;;;;;;25.98;38.18;101462.56;4978801;28;97946;-53
2022/07/29 10:25:26;;;;;;;1.20;1.10;;;;;;;26.03;38.13;101467.97;4976221;28;96896;-52
2022/07/29 10:27:53;;;;;;;1.30;1.00;;;;;;;26.09;38.06;101476.19;4980075;28;96766;-53
2022/07/29 10:30:19;;;;;;;1.73;1.00;;;;;;;26.12;38.27;101465.84;4983965;28;97592;-57
2022/07/29 10:32:57;;;;;;;2.10;1.20;;;;;;;26.16;37.70;101471.78;4982885;28;97093;-52
2022/07/29 10:35:47;;;;;;;1.10;0.93;;;;;;;26.20;37.58;101472.13;4974769;28;97236;-57
2022/07/29 10:38:30;;;;;;;1.47;1.07;;;;;;;26.30;37.71;101467.31;4973023;28;96910;-52
2022/07/29 10:41:26;;;;;;;1.20;1.10;;;;;;;26.36;37.36;101468.53;4976279;28;101528;-52
2022/07/29 10:44:00;;;;;;;0.97;0.87;;;;;;;26.46;37.49;101474.97;4976592;28;101736;-53
2022/07/29 10:46:27;;;;;;;1.37;1.00;;;;;;;26.42;37.50;101463.38;4977675;28;96937;-52
2022/07/29 10:49:16;;;;;;;1.17;1.07;;;;;;;26.46;36.77;101466.50;4980001;28;96647;-53
2022/07/29 10:51:50;;;;;;;3.30;1.30;;;;;;;26.41;36.66;101461.13;4978442;28;100716;-53
2022/07/29 10:54:16;;;;;;;1.10;1.00;;;;;;;26.47;37.55;101465.16;4980749;28;96774;-53
2022/07/29 10:56:41;;;;;;;1.13;1.03;;;;;;;26.60;37.18;101456.31;4975859;28;98211;-54
2022/07/29 10:59:26;;;;;;;1.63;1.30;;;;;;;26.79;36.00;101458.53;4979117;28;97768;-53
2022/07/29 11:01:53;;;;;;;2.00;1.27;;;;;;;26.99;36.72;101459.38;4971395;28;100626;-55
2022/07/29 11:04:43;;;;;;;2.00;1.10;;;;;;;27.10;34.76;101458.81;4974547;28;97487;-55
2022/07/29 11:07:08;;;;;;;2.20;1.20;;;;;;;27.22;36.29;101454.06;4992930;22;96928;-52
2022/07/29 11:09:34;;;;;;;2.00;1.00;;;;;;;27.26;35.93;101460.06;4979973;28;97010;-51
2022/07/29 11:12:00;;;;;;;1.73;1.20;;;;;;;27.34;35.97;101455.00;4975788;28;98715;-51
2022/07/29 11:14:54;;;;;;;1.57;0.90;;;;;;;27.40;34.91;101461.91;4980060;28;96824;-51
2022/07/29 11:17:20;;;;;;;1.50;1.20;;;;;;;27.52;35.32;101453.59;4974270;28;96668;-51
2022/07/29 11:19:45;;;;;;;1.13;1.00;;;;;;;27.59;35.37;101449.13;4956249;28;97257;-51
2022/07/29 11:22:30;;;;;;;0.90;0.70;;;;;;;27.64;35.12;101446.00;4956384;28;97597;-51
2022/07/29 11:25:29;;;;;;;1.30;0.90;;;;;;;27.87;34.14;101448.41;4952227;28;99034;-50
2022/07/29 11:28:12;;;;;;;1.67;0.80;;;;;;;28.06;34.71;101442.75;4930087;28;97248;-51
2022/07/29 11:30:49;;;;;;;2.20;0.87;;;;;;;28.06;34.40;101437.84;4954766;28;97355;-51
2022/07/29 11:33:31;;;;;;;1.00;0.70;;;;;;;28.06;33.78;101434.25;4959685;28;100615;-52